Weersoverzicht van METAR-stations binnen 150 km

EHRD - Rotterdam Airport
Afstand tot weerstation: ZO 28 km
Update: 22-01-2020 17:55
Mist, Zwaar bewolkt
Mist, Zwaar bewolkt
 Wind van WZW
Wind: WZW 6 km/h
Temperatuur: 6°C
Dauwpunt: 6°C
Luchtvochtigheid: 100%
Luchtdruk: 1036 hPa
Overzicht: Mist
Bewolking: Zwaar bewolkt
Zicht: 2 km
Details Bewolking: Zwaar bewolkt 61 m
2020/01/22 16:55 EHRD 221655Z AUTO 24003KT 210V270 2000 BR OVC002 06/06 Q1036 NOSIG
EHSC - Goeree Le Sea (Platform ter hoogte van Zeeland)
Afstand tot weerstation: WZW 36 km
Update: 22-01-2020 17:55
Mist
Mist
 Wind van W
Wind: W 9 km/h
Temperatuur: 7°C
Gevoelstemperatuur: 6°C
Dauwpunt: 7°C
Luchtvochtigheid: 100%
Luchtdruk: 1036 hPa
Overzicht: Mist
Zicht: 4 km
2020/01/22 16:55 EHSC 221655Z AUTO 26005KT 4400 BR ///////// 07/07 Q1036 W08/H4
 
EHAM - A'dam Schiphol
Afstand tot weerstation: ONO 51 km
Update: 22-01-2020 17:55
Overwegend bewolkt
Overwegend bewolkt
 Wind van WZW
Wind: WZW 2 km/h
Temperatuur: 7°C
Dauwpunt: 7°C
Luchtvochtigheid: 100%
Luchtdruk: 1036 hPa
Bewolking: Overwegend bewolkt
Zicht: 10 km
Details Bewolking: Overwegend bewolkt 305 m
2020/01/22 16:55 EHAM 221655Z 25001KT 9999 BKN010 07/07 Q1036 TEMPO 6000 BKN008
EHSA - Euro Platform (Ter hoogte van Zeeland)
Afstand tot weerstation: W 58 km
Update: 22-01-2020 17:55

 Wind van N
Wind: N 6 km/h
Temperatuur: 9°C
Dauwpunt: 8°C
Luchtvochtigheid: 94%
Luchtdruk: 1036 hPa
Zicht: 6 km
2020/01/22 16:55 EHSA 221655Z AUTO 36003KT 6000 ///////// 09/08 Q1036 W06/H4
 
EHPG - P11-B Sea (Platform ter hoogte van Zuid Holland)
Afstand tot weerstation: NW 60 km
Update: 22-01-2020 17:55

 
2020/01/22 16:55 EHPG 221655Z AUTO ///01KT 4900 BR FEW001 OVC014 09/08 Q1036
EHWO - Vliegveld Woensdrecht
Afstand tot weerstation: ZZO 65 km
Update: 22-01-2020 18:12
Mist, Zwaar bewolkt
Mist, Zwaar bewolkt
 Wind van W
Wind: W 6 km/h
Temperatuur: 4°C
Dauwpunt: 4°C
Luchtvochtigheid: 100%
Luchtdruk: 1036 hPa
Overzicht: Mist
Bewolking: Zwaar bewolkt
Zicht: 1 km
Details Bewolking: Zwaar bewolkt 30 m
2020/01/22 17:12 EHWO 221712Z AUTO 27003KT 0900 FG VV001 04/04 Q1036 AMB
 
EHGR - Vliegveld Gilze-Rijen
Afstand tot weerstation: ZO 79 km
Update: 22-01-2020 17:55
Mist, Zwaar bewolkt
Mist, Zwaar bewolkt
 Wind van ZW
Wind: ZW 2 km/h
Temperatuur: 5°C
Dauwpunt: 5°C
Luchtvochtigheid: 100%
Luchtdruk: 1036 hPa
Overzicht: Mist
Bewolking: Zwaar bewolkt
Zicht: 1 km
Details Bewolking: Overwegend bewolkt 30 m
Zwaar bewolkt 61 m
2020/01/22 16:55 EHGR 221655Z AUTO 23001KT 1200 BR BKN001 OVC002 05/05 Q1036 RED
EHQE - Hoorn-A Sea (Platform ter hoogte van Noord Holland)
Afstand tot weerstation: N 103 km
Update: 22-01-2020 17:55
Mist, Zwaar bewolkt
Mist, Zwaar bewolkt
 Wind van W
Wind: W 4 km/h
Temperatuur: 8°C
Dauwpunt: 7°C
Luchtvochtigheid: 93%
Luchtdruk: 1035 hPa
Overzicht: Mist
Bewolking: Zwaar bewolkt
Zicht: 2 km
Details Bewolking: Enkele wolken 0 m
Gedeeltelijk bewolkt 30 m
Zwaar bewolkt 61 m
2020/01/22 16:55 EHQE 221655Z AUTO 26002KT 2000 BR FEW000 SCT001 OVC002 08/07 Q1035
 
EHKD - Marinebasis De Kooy (Den Helder)
Afstand tot weerstation: NNO 114 km
Update: 22-01-2020 17:55
Mist, Zwaar bewolkt
Mist, Zwaar bewolkt
 Wind van NW
Wind: NW 6 km/h
Temperatuur: 8°C
Dauwpunt: 7°C
Luchtvochtigheid: 93%
Luchtdruk: 1036 hPa
Overzicht: Mist
Bewolking: Zwaar bewolkt
Zicht: 6 km
Details Bewolking: Gedeeltelijk bewolkt 213 m
Overwegend bewolkt 274 m
Zwaar bewolkt 335 m
2020/01/22 16:55 EHKD 221655Z AUTO 32003KT 290V360 6000 BR SCT007 BKN009 OVC011 08/07 Q1036 GRN
EHEH - Vliegveld Eindhoven
Afstand tot weerstation: OZO 115 km
Update: 22-01-2020 17:55
Mist, Zwaar bewolkt
Mist, Zwaar bewolkt
 Wind van W
Wind: W 2 km/h
Temperatuur: 4°C
Dauwpunt: 3°C
Luchtvochtigheid: 93%
Luchtdruk: 1036 hPa
Overzicht: Mist
Bewolking: Zwaar bewolkt
Zicht: 1 km
Details Bewolking: Zwaar bewolkt 0 m
2020/01/22 16:55 EHEH 221655Z AUTO 27001KT 0700 R21/0350N FG OVC000 04/03 Q1036 RED 23003KT 0700 FG OVC001 TEMPO 1000 BR FEW001 BKN002 OVC004 RMK LVP CHARLIE
 
EHVK - Vliegveld Volkel
Afstand tot weerstation: OZO 124 km
Update: 22-01-2020 17:55
Mist, Zwaar bewolkt
Mist, Zwaar bewolkt
 Wind van calm
Wind: Kalm
Temperatuur: 4°C
Dauwpunt: 4°C
Luchtvochtigheid: 100%
Luchtdruk: 1036 hPa
Overzicht: Mist
Bewolking: Zwaar bewolkt
Zicht: 1 km
Details Bewolking: Overwegend bewolkt 0 m
Zwaar bewolkt 30 m
2020/01/22 16:55 EHVK 221655Z AUTO 00000KT 0600 FG BKN000 OVC001 04/04 Q1036 RED
EHDL - Vliegveld Deelen
Afstand tot weerstation: O 128 km
Update: 22-01-2020 17:55
Mist, Zwaar bewolkt
Mist, Zwaar bewolkt
 Wind van Variabel
Wind: Variabel 2 km/h
Temperatuur: 5°C
Dauwpunt: 5°C
Luchtvochtigheid: 100%
Luchtdruk: 1035 hPa
Overzicht: Mist
Bewolking: Zwaar bewolkt
Zicht: 2 km
Details Bewolking: Zwaar bewolkt 30 m
2020/01/22 16:55 EHDL 221655Z AUTO VRB01KT 1900 BR OVC001 05/05 Q1035 RED